Detall de PIREP

Printer-friendly versionPDF version

[2013/09/29 13:27:00]
Flight IATA:CT2313
Pilot Number:012
Company ICAO:CAT
Aircraft Type:B738/F
PAX:160
Departing Airport: LIBP
Destination Airport: LIEA
Alternate Airport:LIEO
Online: VATSIM
Route:ORVID/M080F310 UZ924 KOLUS/M080F300 UM603 MOROB
Flight Level:F310
No Slew and time accel
No pause
Crash detect
Detect pilot in Cockpit between each 30 and 45 minutes
13:27 Zero fuel Weight: 126698 Lbs, Fuel Weight: 12599 Lbs
13:27 VATSIM:LIBP 291250Z 04007KT 9999 FEW040 BKN080 23/20 Q1007
13:27 VATSIM:LIEA 291250Z 20016KT 9999 SCT015 SCT025 25/21 Q1007
13:27 VOICE CATALONIAN
13:38 Parking Brakes off
13:43 Take-off
13:43 Take off Weight: 138644 Lbs
13:43 Wind: 037º @ 007 Knots Heading: 037º
13:43 POS N42º 26´ 14´´ E014º 11´ 21´´
13:43 Gear Up: 164 Knots
13:43 Flaps:3 at 164 Knots
13:43 Flaps:2 at 185 Knots
13:43 Flaps:1 at 190 Knots
13:43 Flaps:0 at 208 Knots
13:58 Wind:233º@047 Knots Heading: 238º Ground Speed: 430 Knots Altitude 30620 ft
13:58 TOC
13:58 Fuel Weight: 8815 Lb
14:13 Wind:239º@050 Knots Heading: 248º Ground Speed: 423 Knots Altitude 30800 ft
14:14 TOD
14:14 Fuel Weight: 7164 Lb
14:28 Wind:244º@027 Knots Heading: 262º Ground Speed: 240 Knots Altitude 7467 ft
14:31 Flaps:1 at 218 Knots
14:31 Flaps:2 at 198 Knots
14:33 Flaps:3 at 174 Knots
14:33 Gear Down: 173 Knots
14:33 Flaps:4 at 169 Knots
14:34 Flaps:5 at 151 Knots
14:34 Flaps:6 at 144 Knots
14:35 Flaps:7 at 146 Knots
14:37 TouchDown:Rate -93 ft/min Speed: 135 Knots
14:37 VATSIM:LIEA 291420Z 19013KT 9999 SCT015 SCT025 24/21 Q1007
14:37 Land
14:37 Wind:198º@014 Knots
14:37 Heading: 203º
14:37 Flight Duration: 00:54
14:37 Landing Weight: 132751 Lbs
14:37 POS N40º 37´ 47´´ E008º 17´ 22´´
14:40 Parking brakes on
14:40 Block to Block Duration: 01:02
14:40 Final Fuel: 5837 Lbls
14:40 Spent Fuel: 6761 Lbls
14:40 Flight Length: 312 NM
14:40 TOD Land Length: 105 NM

Exportar CSV

Powered by Drupal - Modified by Danger4k